createdAt,value
2022-11-06T00:01:44.207Z,28.40
2022-11-06T00:23:30.108Z,29.10
2022-11-06T00:45:16.042Z,32.10
2022-11-06T01:07:01.859Z,32.90
2022-11-06T01:28:48.248Z,29.60
2022-11-06T01:50:34.485Z,33.10
2022-11-06T02:12:38.498Z,28.10
2022-11-06T02:34:28.816Z,25.60
2022-11-06T02:56:17.945Z,31.90
2022-11-06T03:18:12.150Z,28.20
2022-11-06T03:40:04.214Z,30.90
2022-11-06T04:01:51.656Z,28.80
2022-11-06T04:23:46.129Z,29.10
2022-11-06T04:45:36.045Z,23.40
2022-11-06T05:07:21.977Z,27.50
2022-11-06T05:29:07.858Z,28.90
2022-11-06T05:50:53.851Z,28.20
2022-11-06T06:12:40.707Z,28.20
2022-11-06T06:34:26.571Z,25.80
2022-11-06T06:56:12.545Z,26.80
2022-11-06T07:18:02.174Z,24.80
2022-11-06T07:39:48.028Z,24.80
2022-11-06T08:01:33.924Z,25.20
2022-11-06T08:23:19.997Z,22.00
2022-11-06T08:45:08.137Z,23.60
2022-11-06T09:06:55.029Z,24.60
2022-11-06T09:28:41.619Z,21.30
2022-11-06T09:50:32.221Z,19.70
2022-11-06T10:12:26.594Z,15.30
2022-11-06T10:34:14.571Z,14.30
2022-11-06T10:56:21.365Z,17.00
2022-11-06T11:18:20.300Z,20.40
2022-11-06T11:40:29.660Z,13.10
2022-11-06T12:02:26.897Z,14.50
2022-11-06T12:24:19.288Z,15.20
2022-11-06T12:46:20.263Z,12.60
2022-11-06T13:08:34.959Z,14.60
2022-11-06T13:30:24.489Z,13.00
2022-11-06T13:52:18.904Z,10.60
2022-11-06T14:14:07.047Z,15.20
2022-11-06T14:35:57.304Z,12.40
2022-11-06T14:57:47.829Z,13.40
2022-11-06T15:19:39.187Z,15.90
2022-11-06T15:41:26.990Z,17.20
2022-11-06T16:03:16.805Z,27.60
2022-11-06T16:25:05.712Z,31.80
2022-11-06T16:47:23.033Z,33.90
2022-11-06T17:09:29.683Z,27.90
2022-11-06T17:31:18.088Z,33.10
2022-11-06T17:53:03.986Z,36.60
2022-11-06T18:14:49.975Z,39.80
2022-11-06T18:36:37.078Z,32.10
2022-11-06T18:58:25.186Z,34.60
2022-11-06T19:20:15.022Z,36.90
2022-11-06T19:42:01.559Z,39.80
2022-11-06T20:03:47.653Z,43.10
2022-11-06T20:25:33.548Z,44.90
2022-11-06T20:47:19.322Z,44.00
2022-11-06T21:09:05.170Z,45.00
2022-11-06T21:30:51.534Z,53.20
2022-11-06T21:52:57.418Z,45.50
2022-11-06T22:14:43.272Z,44.70
2022-11-06T22:36:29.158Z,57.80
2022-11-06T22:58:15.133Z,50.20
2022-11-06T23:20:02.861Z,55.70
2022-11-06T23:41:48.733Z,58.10
